Airfield :
LOGIN :

Register | Disclaimer

   EN    FR    IT 

 










Legend :    VFR   Marginal VFR   IFR   Intensive IFR   Very Intensive IFR
Visi :
Ceiling :
>= 8 km
>= 3000ft
5 to 8 km
1000 to 3000 ft
1500m to 5 km
500 to 1000 ft
800 to 1500m
200 to 500 ft
< 800m
< 200 ft
Symbols :   Thunderstorms  Fog  Heavy snow  Heavy precipitations  Wind > 20 kt
SIGMETs :     Misc.  Thunderstorms  Icing  Turbulence  Mountain Waves  Volcanic Ashes






- Airport Elevation : 42 ft
- IATA code : VAW


ENSS - Vardø , Svartnes

CURRENT METAR :
  • 230250Z AUTO 23012KT 9999 NCD 21/10 Q1015 RMK WIND 0500FT 22014KT

EXPIRED METARs :
  • 230220Z AUTO 22011KT 9999 NCD 21/10 Q1015 RMK WIND 0500FT 22013KT
  • 230150Z AUTO 22011KT 9999 NCD 20/10 Q1015 RMK WIND 0500FT 23012KT
  • 230120Z AUTO 22010KT 9999 NCD 20/10 Q1015 RMK WIND 0500FT 23012KT
  • 230050Z AUTO VRB01KT 9999 NCD 13/10 Q1015 RMK WIND 0500FT 24010KT
  • 230020Z AUTO 00000KT 9999 NCD 15/10 Q1015 RMK WIND 0500FT 21012KT
  • 222350Z AUTO 00000KT 9999 NCD 15/10 Q1015 RMK WIND 0500FT 20011KT
  • 222320Z AUTO VRB02KT 9999 NCD 16/10 Q1015 RMK WIND 0500FT 20009KT
  • 222250Z AUTO 19005KT 9999 NCD 17/10 Q1015 RMK WIND 0500FT 19008KT
  • 222220Z AUTO 20003KT 170V240 9999 NCD 17/10 Q1015 RMK WIND 0500FT 20009KT
  • 222150Z AUTO 00000KT 9999 NCD 16/10 Q1015 RMK WIND 0500FT 19010KT

Expired Forecast.



MET'MAP, your aeronautical weather chart ! - Copyright ORBIFLY December 2007 - Disclaimer

ORBIFLY MET'MAP TEAM :

Programming & Development : Alexandra Zaïnal
Original concept : Baudouin d'Aumeries
Technical & hardware support : Manuel Goepfert
Assistance : Marc-Olivier Méhu




SOURCES & CREDITS :

   NOAA